Pagrindinis puslapis
METAR-TAF:

METAR-TAF

Oro uostai :

Enontekiö, Suomija

platuma: 68-21-52N, ilguma: 023-25-39E, Aukštis: 308 m

Dabartinis oras

Ataskaita buvo paskelbta 29 minutes, ne 09:20 UTC
Vėjas 1 kt nuo kintamojo kryptimis
Temperatūra -11°C
Drėgmė 92%
Slėgis 1002 hPa
Matomumas 10 km arba daugiau
Su prošvaistėmis ne aukštis 1200 ft
Su prošvaistėmis ne aukštis 3700 ft
sniegas

METAR: EFET 070920Z AUTO VRB01KT 9999 -SHSN BKN012 BKN037 M11/M12 Q1002

Laikas: 11:49 (09:49 UTC)

Prognozė

Ataskaita buvo paskelbta 22 valandos ir 18 minutes, ne 11:31 UTC
Prognozė galioja nuo 06 metu 12 UTC su 06 metu 15 UTC
Vėjas 5 kt iš Šiaurės
Matomumas 10 km arba daugiau
nėra debesų žemiau 1500 m ir nėra kamuolinių lietaus debesų

TAF: EFET 061131Z 0612/0615 35005KT CAVOK

Orai ataskaitas ir orų prognozės (METAR, TAF).

turimą stotys yra geltonos ir raudonos taškus žemėlapyje.

Perkelti pele per norėdami pamatyti stoties vardą.

Tada spustelėkite, norėdami matyti oro stebėjimo ir prognozės.

Norėdami pakeisti žemėlapį: spustelėkite ant žalios mygtukų su juodo kryžiaus žemyn,; žalią mygtuką su brūkšneliu, jei norite nutolinti; arba žalių rodyklių gretimoms žemėlapius.


METAR-TAF: